createdAt,value
2018-03-23T00:00:28.778Z,4.42
2018-03-23T00:02:56.355Z,4.45
2018-03-23T00:05:23.939Z,4.36
2018-03-23T00:07:51.520Z,4.21
2018-03-23T00:10:19.127Z,4.24
2018-03-23T00:12:46.720Z,4.24
2018-03-23T00:15:15.188Z,4.13
2018-03-23T00:17:42.818Z,4.22
2018-03-23T00:20:10.399Z,4.27
2018-03-23T00:22:37.984Z,4.24
2018-03-23T00:25:05.566Z,4.20
2018-03-23T00:27:33.148Z,4.16
2018-03-23T00:30:00.724Z,4.16
2018-03-23T00:32:28.299Z,4.31
2018-03-23T00:34:55.880Z,4.22
2018-03-23T00:37:23.459Z,4.32
2018-03-23T00:39:51.049Z,4.38
2018-03-23T00:42:18.631Z,4.28
2018-03-23T00:44:46.218Z,4.17
2018-03-23T00:47:13.809Z,4.29
2018-03-23T00:49:41.396Z,4.12
2018-03-23T00:52:08.974Z,4.11
2018-03-23T00:54:36.555Z,4.05
2018-03-23T00:57:04.231Z,4.11
2018-03-23T00:59:31.830Z,4.26
2018-03-23T01:01:59.416Z,4.07
2018-03-23T01:04:27.053Z,4.12
2018-03-23T01:06:55.451Z,4.19
2018-03-23T01:09:23.072Z,4.19
2018-03-23T01:11:50.718Z,4.11
2018-03-23T01:14:18.306Z,4.03
2018-03-23T01:16:45.894Z,4.12
2018-03-23T01:19:13.479Z,4.29
2018-03-23T01:21:41.058Z,4.19
2018-03-23T01:24:09.168Z,4.28
2018-03-23T01:26:36.752Z,4.16
2018-03-23T01:29:04.336Z,4.14
2018-03-23T01:31:31.915Z,4.27
2018-03-23T01:33:59.499Z,4.22
2018-03-23T01:36:28.122Z,4.19
2018-03-23T01:38:55.704Z,4.15
2018-03-23T01:41:23.324Z,4.22
2018-03-23T01:43:50.940Z,4.15
2018-03-23T01:46:19.387Z,4.23
2018-03-23T01:48:47.768Z,4.06
2018-03-23T01:51:16.278Z,4.07
2018-03-23T01:53:43.891Z,4.07
2018-03-23T01:56:11.479Z,4.02
2018-03-23T01:58:39.060Z,4.04
2018-03-23T02:01:06.644Z,3.96
2018-03-23T02:03:34.259Z,3.94
2018-03-23T02:06:01.855Z,3.90
2018-03-23T02:08:29.583Z,3.83
2018-03-23T02:10:57.196Z,3.86
2018-03-23T02:13:24.782Z,3.79
2018-03-23T02:15:52.400Z,3.73
2018-03-23T02:18:19.984Z,3.70
2018-03-23T02:20:47.565Z,3.60
2018-03-23T02:23:15.152Z,3.58
2018-03-23T02:25:42.732Z,3.64
2018-03-23T02:28:10.308Z,3.58
2018-03-23T02:30:37.985Z,3.59
2018-03-23T02:33:05.575Z,3.58
2018-03-23T02:35:33.163Z,3.72
2018-03-23T02:38:00.739Z,3.58
2018-03-23T02:40:28.437Z,3.60
2018-03-23T02:42:56.021Z,3.53
2018-03-23T02:45:23.605Z,3.49
2018-03-23T02:47:51.189Z,3.41
2018-03-23T02:50:18.915Z,3.38
2018-03-23T02:52:46.501Z,3.41
2018-03-23T02:55:14.141Z,3.32
2018-03-23T02:57:41.724Z,3.27
2018-03-23T03:00:09.318Z,3.22
2018-03-23T03:02:37.688Z,3.15
2018-03-23T03:05:05.272Z,3.07
2018-03-23T03:07:33.747Z,3.14
2018-03-23T03:10:01.326Z,3.22
2018-03-23T03:12:28.907Z,3.27
2018-03-23T03:14:56.490Z,3.35
2018-03-23T03:17:25.011Z,3.21
2018-03-23T03:19:52.596Z,3.15
2018-03-23T03:22:20.179Z,3.19
2018-03-23T03:24:47.761Z,3.10
2018-03-23T03:27:15.396Z,3.04
2018-03-23T03:29:43.480Z,3.09
2018-03-23T03:32:11.060Z,3.00
2018-03-23T03:34:38.649Z,2.90
2018-03-23T03:37:06.243Z,2.84
2018-03-23T03:39:33.834Z,2.86
2018-03-23T03:42:01.424Z,2.85
2018-03-23T03:44:29.004Z,2.85
2018-03-23T03:46:56.595Z,2.83
2018-03-23T03:49:24.260Z,2.84
2018-03-23T03:51:51.887Z,2.81
2018-03-23T03:54:19.588Z,2.80
2018-03-23T03:56:47.167Z,2.97
2018-03-23T03:59:14.746Z,2.99
2018-03-23T04:01:42.323Z,2.94
2018-03-23T04:04:09.907Z,2.99
2018-03-23T04:06:37.492Z,2.88
2018-03-23T04:09:05.084Z,2.83
2018-03-23T04:11:32.663Z,2.79
2018-03-23T04:14:00.478Z,2.80
2018-03-23T04:16:28.060Z,2.81
2018-03-23T04:18:55.639Z,2.80
2018-03-23T04:21:23.228Z,2.84
2018-03-23T04:23:50.810Z,2.82
2018-03-23T04:26:18.388Z,2.93
2018-03-23T04:28:46.146Z,2.86
2018-03-23T04:31:13.729Z,2.94
2018-03-23T04:33:42.267Z,2.82
2018-03-23T04:36:09.847Z,2.77
2018-03-23T04:38:37.431Z,2.77
2018-03-23T04:41:05.014Z,2.71
2018-03-23T04:43:32.600Z,2.68
2018-03-23T04:46:00.184Z,2.63
2018-03-23T04:48:27.768Z,2.62
2018-03-23T04:50:55.351Z,2.65
2018-03-23T04:53:22.931Z,2.74
2018-03-23T04:55:50.511Z,2.72
2018-03-23T04:58:18.126Z,2.70
2018-03-23T05:00:45.708Z,2.64
2018-03-23T05:03:13.963Z,2.61
2018-03-23T05:05:41.611Z,2.63
2018-03-23T05:08:09.200Z,2.61
2018-03-23T05:10:36.775Z,2.56
2018-03-23T05:13:04.357Z,2.59
2018-03-23T05:15:31.934Z,2.61
2018-03-23T05:17:59.518Z,2.80
2018-03-23T05:20:27.101Z,2.66
2018-03-23T05:22:54.686Z,2.67
2018-03-23T05:25:22.420Z,2.66
2018-03-23T05:27:49.999Z,2.90
2018-03-23T05:30:17.615Z,2.67
2018-03-23T05:32:45.202Z,2.87
2018-03-23T05:35:12.783Z,3.01
2018-03-23T05:37:40.365Z,2.81
2018-03-23T05:40:08.726Z,2.93
2018-03-23T05:42:37.198Z,2.66
2018-03-23T05:45:04.779Z,2.60
2018-03-23T05:47:32.360Z,2.78
2018-03-23T05:50:01.587Z,2.66
2018-03-23T05:52:30.012Z,2.72
2018-03-23T05:54:58.584Z,2.64
2018-03-23T05:57:26.167Z,2.65
2018-03-23T05:59:54.538Z,2.74
2018-03-23T06:02:22.910Z,2.71
2018-03-23T06:04:50.492Z,2.77
2018-03-23T06:07:18.091Z,2.71
2018-03-23T06:09:45.675Z,2.65
2018-03-23T06:12:13.255Z,2.66
2018-03-23T06:14:40.836Z,2.65
2018-03-23T06:17:08.419Z,2.64
2018-03-23T06:19:35.995Z,2.65
2018-03-23T06:22:03.607Z,2.71
2018-03-23T06:24:31.191Z,2.70
2018-03-23T06:26:58.781Z,2.66
2018-03-23T06:29:26.469Z,2.72
2018-03-23T06:31:54.052Z,2.75
2018-03-23T06:34:21.640Z,2.77
2018-03-23T06:36:49.219Z,2.79
2018-03-23T06:39:16.798Z,2.80
2018-03-23T06:41:44.384Z,2.80
2018-03-23T06:44:12.019Z,2.86
2018-03-23T06:46:39.612Z,2.84
2018-03-23T06:49:07.188Z,3.04
2018-03-23T06:51:34.768Z,3.04
2018-03-23T06:54:02.355Z,3.01
2018-03-23T06:56:29.932Z,3.02
2018-03-23T06:58:57.511Z,2.98
2018-03-23T07:01:25.700Z,3.05
2018-03-23T07:03:54.147Z,3.05
2018-03-23T07:06:21.729Z,3.16
2018-03-23T07:08:49.311Z,3.16
2018-03-23T07:11:16.894Z,3.21
2018-03-23T07:13:44.479Z,3.16
2018-03-23T07:16:12.061Z,3.11
2018-03-23T07:18:40.448Z,3.20
2018-03-23T07:21:08.027Z,3.28
2018-03-23T07:23:35.645Z,3.36
2018-03-23T07:26:03.448Z,3.46
2018-03-23T07:28:31.032Z,3.61
2018-03-23T07:30:58.638Z,3.63
2018-03-23T07:33:26.221Z,3.65
2018-03-23T07:35:53.808Z,3.54
2018-03-23T07:38:21.392Z,3.63
2018-03-23T07:40:48.978Z,3.82
2018-03-23T07:43:16.671Z,3.67
2018-03-23T07:45:44.256Z,3.79
2018-03-23T07:48:11.840Z,4.07
2018-03-23T07:50:39.649Z,4.14
2018-03-23T07:53:07.232Z,4.11
2018-03-23T07:55:34.815Z,4.10
2018-03-23T07:58:02.468Z,3.84
2018-03-23T08:00:31.207Z,3.86
2018-03-23T08:02:59.065Z,4.09
2018-03-23T08:05:27.310Z,4.06
2018-03-23T08:07:55.043Z,3.99
2018-03-23T08:10:22.628Z,3.97
2018-03-23T08:12:50.208Z,4.22
2018-03-23T08:15:17.791Z,4.44
2018-03-23T08:17:45.374Z,4.53
2018-03-23T08:20:12.991Z,4.30
2018-03-23T08:22:40.570Z,4.23
2018-03-23T08:25:08.165Z,4.37
2018-03-23T08:27:35.764Z,4.40
2018-03-23T08:30:04.256Z,4.33
2018-03-23T08:32:31.857Z,4.05
2018-03-23T08:34:59.683Z,4.09
2018-03-23T08:37:27.299Z,4.05
2018-03-23T08:39:54.880Z,4.13
2018-03-23T08:42:23.298Z,4.07
2018-03-23T08:44:50.956Z,4.20
2018-03-23T08:47:18.551Z,4.25
2018-03-23T08:49:46.142Z,4.30
2018-03-23T08:52:13.727Z,4.37
2018-03-23T08:54:41.322Z,4.23
2018-03-23T08:57:08.943Z,4.45
2018-03-23T08:59:36.530Z,4.44
2018-03-23T09:02:04.281Z,4.28
2018-03-23T09:04:31.835Z,4.32
2018-03-23T09:06:59.411Z,4.15
2018-03-23T09:09:27.055Z,4.33
2018-03-23T09:11:54.635Z,4.04
2018-03-23T09:14:22.210Z,4.05
2018-03-23T09:16:49.798Z,4.04
2018-03-23T09:19:17.383Z,4.14
2018-03-23T09:21:44.976Z,4.06
2018-03-23T09:24:12.592Z,4.41
2018-03-23T09:26:40.234Z,4.43
2018-03-23T09:29:07.820Z,4.60
2018-03-23T09:31:35.400Z,4.64
2018-03-23T09:34:03.020Z,4.28
2018-03-23T09:36:30.607Z,4.19
2018-03-23T09:38:58.191Z,4.37
2018-03-23T09:41:25.780Z,4.35
2018-03-23T09:43:53.368Z,4.34
2018-03-23T09:46:20.958Z,4.39
2018-03-23T09:48:48.544Z,4.28
2018-03-23T09:51:16.199Z,4.18
2018-03-23T09:53:43.783Z,4.23
2018-03-23T09:56:11.372Z,4.19
2018-03-23T09:58:39.779Z,4.18
2018-03-23T10:01:08.336Z,4.28
2018-03-23T10:03:35.927Z,4.37
2018-03-23T10:06:03.516Z,4.40
2018-03-23T10:08:31.138Z,4.57
2018-03-23T10:10:58.722Z,4.50
2018-03-23T10:13:27.220Z,4.91
2018-03-23T10:15:54.800Z,5.02
2018-03-23T10:18:22.439Z,5.02
2018-03-23T10:20:50.055Z,5.21
2018-03-23T10:23:18.583Z,4.93
2018-03-23T10:25:46.317Z,4.84
2018-03-23T10:28:13.898Z,4.50
2018-03-23T10:30:42.179Z,4.65
2018-03-23T10:33:09.755Z,4.59
2018-03-23T10:35:37.340Z,4.69
2018-03-23T10:38:04.950Z,4.27
2018-03-23T10:40:32.535Z,4.53
2018-03-23T10:43:00.114Z,4.60
2018-03-23T10:45:27.736Z,4.69
2018-03-23T10:47:55.320Z,4.49
2018-03-23T10:50:22.909Z,4.82
2018-03-23T10:52:50.564Z,4.85
2018-03-23T10:55:18.351Z,4.60
2018-03-23T10:57:46.726Z,4.55
2018-03-23T11:00:15.145Z,4.53
2018-03-23T11:02:48.461Z,4.37
2018-03-23T11:05:16.747Z,4.52
2018-03-23T11:07:45.175Z,4.57
2018-03-23T11:10:12.755Z,4.33
2018-03-23T11:12:40.973Z,4.37
2018-03-23T11:15:08.591Z,4.57
2018-03-23T11:17:36.171Z,4.44
2018-03-23T11:20:03.747Z,4.41
2018-03-23T11:22:31.336Z,4.63
2018-03-23T11:24:58.952Z,4.52
2018-03-23T11:27:26.536Z,4.39
2018-03-23T11:29:54.155Z,4.45
2018-03-23T11:32:21.839Z,4.60
2018-03-23T11:34:49.420Z,4.68
2018-03-23T11:37:17.007Z,4.88
2018-03-23T11:39:44.582Z,4.57
2018-03-23T11:42:12.162Z,4.51
2018-03-23T11:44:39.742Z,4.52
2018-03-23T11:47:07.328Z,4.76
2018-03-23T11:49:35.459Z,4.93
2018-03-23T11:52:03.203Z,4.69
2018-03-23T11:54:31.471Z,4.87
2018-03-23T11:56:59.863Z,4.94
2018-03-23T11:59:27.450Z,5.18
2018-03-23T12:01:55.036Z,5.37
2018-03-23T12:04:24.241Z,5.35
2018-03-23T12:06:51.896Z,5.31
2018-03-23T12:12:13.352Z,5.30
2018-03-23T12:14:41.707Z,5.18
2018-03-23T12:17:09.496Z,5.18
2018-03-23T12:19:37.111Z,5.02
2018-03-23T12:22:04.690Z,5.00
2018-03-23T12:24:32.277Z,4.99
2018-03-23T12:26:59.859Z,4.70
2018-03-23T12:29:27.433Z,4.87
2018-03-23T12:31:55.061Z,5.01
2018-03-23T12:34:28.691Z,5.06
2018-03-23T12:36:56.311Z,5.03
2018-03-23T12:39:23.903Z,4.87
2018-03-23T12:41:52.399Z,4.82
2018-03-23T12:44:20.932Z,4.55
2018-03-23T12:46:49.279Z,4.56
2018-03-23T12:49:17.671Z,4.50
2018-03-23T12:51:46.051Z,4.58
2018-03-23T12:54:13.634Z,4.83
2018-03-23T12:56:41.227Z,4.59
2018-03-23T12:59:08.812Z,4.82
2018-03-23T13:01:37.401Z,4.66
2018-03-23T13:04:04.979Z,4.66
2018-03-23T13:06:32.567Z,4.64
2018-03-23T13:09:00.151Z,4.55
2018-03-23T13:11:27.738Z,4.46
2018-03-23T13:13:55.323Z,4.49
2018-03-23T13:16:22.895Z,4.54
2018-03-23T13:18:50.483Z,4.69
2018-03-23T13:21:18.062Z,4.66
2018-03-23T13:23:45.683Z,4.88
2018-03-23T13:26:14.169Z,4.72
2018-03-23T13:28:42.539Z,4.74
2018-03-23T13:31:10.132Z,4.73
2018-03-23T13:33:38.552Z,4.81
2018-03-23T13:36:06.220Z,4.70
2018-03-23T13:38:33.798Z,4.63
2018-03-23T13:41:01.388Z,4.53
2018-03-23T13:43:28.980Z,4.73
2018-03-23T13:45:56.599Z,4.89
2018-03-23T13:48:24.187Z,4.79
2018-03-23T13:50:51.772Z,4.81
2018-03-23T13:53:19.356Z,4.54
2018-03-23T13:55:46.979Z,4.61
2018-03-23T13:58:14.592Z,4.57
2018-03-23T14:00:48.261Z,4.76
2018-03-23T14:03:15.862Z,5.10
2018-03-23T14:05:43.455Z,5.20
2018-03-23T14:08:11.035Z,5.26
2018-03-23T14:10:38.620Z,5.16
2018-03-23T14:13:06.239Z,5.18
2018-03-23T14:15:33.826Z,5.23
2018-03-23T14:18:01.451Z,5.08
2018-03-23T14:20:29.035Z,5.20
2018-03-23T14:22:56.728Z,4.94
2018-03-23T14:25:24.308Z,5.00
2018-03-23T14:27:51.893Z,5.02
2018-03-23T14:30:19.487Z,5.15
2018-03-23T14:32:47.068Z,4.99
2018-03-23T14:35:14.650Z,5.00
2018-03-23T14:37:42.242Z,5.03
2018-03-23T14:40:09.822Z,4.93
2018-03-23T14:42:37.401Z,5.22
2018-03-23T14:45:04.980Z,5.34
2018-03-23T14:47:32.560Z,5.06
2018-03-23T14:50:00.144Z,5.25
2018-03-23T14:52:27.896Z,5.07
2018-03-23T14:54:55.468Z,5.35
2018-03-23T14:57:23.088Z,4.97
2018-03-23T14:59:51.583Z,5.04
2018-03-23T15:02:19.164Z,5.01
2018-03-23T15:04:46.752Z,5.25
2018-03-23T15:07:14.440Z,5.27
2018-03-23T15:09:42.119Z,5.23
2018-03-23T15:12:10.612Z,5.18
2018-03-23T15:14:38.196Z,5.15
2018-03-23T15:17:05.818Z,5.00
2018-03-23T15:19:33.398Z,5.19
2018-03-23T15:22:00.983Z,5.20
2018-03-23T15:24:28.637Z,5.30
2018-03-23T15:26:56.287Z,5.07
2018-03-23T15:29:23.873Z,4.92
2018-03-23T15:31:51.455Z,5.12
2018-03-23T15:34:19.040Z,5.20
2018-03-23T15:36:46.640Z,5.04
2018-03-23T15:39:14.225Z,5.15
2018-03-23T15:41:41.814Z,5.21
2018-03-23T15:44:09.402Z,5.04
2018-03-23T15:46:36.979Z,4.86
2018-03-23T15:49:04.559Z,4.97
2018-03-23T15:51:32.144Z,4.73
2018-03-23T15:53:59.799Z,4.78
2018-03-23T15:56:27.383Z,4.72
2018-03-23T15:58:54.963Z,4.73
2018-03-23T16:01:22.548Z,4.66
2018-03-23T16:03:51.077Z,4.65
2018-03-23T16:06:18.660Z,4.67
2018-03-23T16:08:47.212Z,4.54
2018-03-23T16:11:15.760Z,4.81
2018-03-23T16:13:43.346Z,4.68
2018-03-23T16:16:11.003Z,4.49
2018-03-23T16:18:38.584Z,4.53
2018-03-23T16:21:06.170Z,4.39
2018-03-23T16:23:34.657Z,4.31
2018-03-23T16:26:02.237Z,4.28
2018-03-23T16:28:29.820Z,4.36
2018-03-23T16:30:57.408Z,4.33
2018-03-23T16:33:25.896Z,4.32
2018-03-23T16:35:54.183Z,4.22
2018-03-23T16:38:22.544Z,4.29
2018-03-23T16:40:50.123Z,4.30
2018-03-23T16:43:18.513Z,4.18
2018-03-23T16:45:46.914Z,4.07
2018-03-23T16:48:15.414Z,4.11
2018-03-23T16:50:43.784Z,4.00
2018-03-23T16:53:11.363Z,3.93
2018-03-23T16:55:39.906Z,3.86
2018-03-23T16:58:08.426Z,3.84
2018-03-23T17:00:36.548Z,3.84
2018-03-23T17:03:04.129Z,3.93
2018-03-23T17:05:31.712Z,3.80
2018-03-23T17:08:00.081Z,3.74
2018-03-23T17:10:27.672Z,3.79
2018-03-23T17:12:56.098Z,3.69
2018-03-23T17:15:23.687Z,3.78
2018-03-23T17:17:51.308Z,3.74
2018-03-23T17:20:18.891Z,3.85
2018-03-23T17:22:46.525Z,3.91
2018-03-23T17:25:14.109Z,4.04
2018-03-23T17:27:41.695Z,3.75
2018-03-23T17:30:09.411Z,3.76
2018-03-23T17:32:37.008Z,3.73
2018-03-23T17:35:04.602Z,3.64
2018-03-23T17:37:32.189Z,3.54
2018-03-23T17:39:59.775Z,3.44
2018-03-23T17:42:27.466Z,3.35
2018-03-23T17:44:55.065Z,3.26
2018-03-23T17:47:22.657Z,3.42
2018-03-23T17:49:51.191Z,3.34
2018-03-23T17:52:19.555Z,3.27
2018-03-23T17:54:47.868Z,3.26
2018-03-23T17:57:15.447Z,3.21
2018-03-23T17:59:43.847Z,3.21
2018-03-23T18:02:11.638Z,3.14
2018-03-23T18:04:39.227Z,3.28
2018-03-23T18:07:06.807Z,3.22
2018-03-23T18:09:34.417Z,3.19
2018-03-23T18:12:02.083Z,3.10
2018-03-23T18:14:29.664Z,3.26
2018-03-23T18:16:57.251Z,3.28
2018-03-23T18:19:24.836Z,3.18
2018-03-23T18:21:52.415Z,3.28
2018-03-23T18:24:20.832Z,3.30
2018-03-23T18:26:48.482Z,3.21
2018-03-23T18:29:16.058Z,3.09
2018-03-23T18:31:43.639Z,3.12
2018-03-23T18:34:11.256Z,3.08
2018-03-23T18:36:38.878Z,3.00
2018-03-23T18:39:06.494Z,2.94
2018-03-23T18:41:34.124Z,3.04
2018-03-23T18:44:01.708Z,2.95
2018-03-23T18:46:29.322Z,3.02
2018-03-23T18:48:57.708Z,2.95
2018-03-23T18:51:25.291Z,2.89
2018-03-23T18:53:53.052Z,2.83
2018-03-23T18:56:20.633Z,2.91
2018-03-23T18:58:48.269Z,3.04
2018-03-23T19:01:15.855Z,2.87
2018-03-23T19:03:43.439Z,2.76
2018-03-23T19:06:11.830Z,2.76
2018-03-23T19:08:39.410Z,2.88
2018-03-23T19:11:06.992Z,2.84
2018-03-23T19:13:36.357Z,2.88
2018-03-23T19:16:03.939Z,2.80
2018-03-23T19:18:32.097Z,2.88
2018-03-23T19:20:59.683Z,2.97
2018-03-23T19:23:27.271Z,2.88
2018-03-23T19:25:54.859Z,2.85
2018-03-23T19:28:22.449Z,2.78
2018-03-23T19:30:50.064Z,2.82
2018-03-23T19:33:17.649Z,2.74
2018-03-23T19:35:45.222Z,2.85
2018-03-23T19:38:12.851Z,2.91
2018-03-23T19:40:40.432Z,2.86
2018-03-23T19:43:08.034Z,2.75
2018-03-23T19:45:35.638Z,2.83
2018-03-23T19:48:03.219Z,2.97
2018-03-23T19:50:30.799Z,2.99
2018-03-23T19:52:59.187Z,2.98
2018-03-23T19:55:26.763Z,2.99
2018-03-23T19:57:55.059Z,3.01
2018-03-23T20:00:22.674Z,2.88
2018-03-23T20:02:51.180Z,2.99
2018-03-23T20:05:18.774Z,2.86
2018-03-23T20:07:47.249Z,3.04
2018-03-23T20:10:14.835Z,3.00
2018-03-23T20:12:42.491Z,2.80
2018-03-23T20:15:10.083Z,2.72
2018-03-23T20:17:43.116Z,2.71
2018-03-23T20:20:16.247Z,2.76
2018-03-23T20:22:43.931Z,2.74
2018-03-23T20:25:11.576Z,2.81
2018-03-23T20:27:44.770Z,2.76
2018-03-23T20:30:12.386Z,2.71
2018-03-23T20:32:40.055Z,2.73
2018-03-23T20:35:07.641Z,2.68
2018-03-23T20:37:35.535Z,2.70
2018-03-23T20:40:03.187Z,2.71
2018-03-23T20:42:30.880Z,2.66
2018-03-23T20:44:58.508Z,2.77
2018-03-23T20:47:26.154Z,2.86
2018-03-23T20:49:53.776Z,2.68
2018-03-23T20:52:21.460Z,2.55
2018-03-23T20:54:49.229Z,2.65
2018-03-23T20:57:16.814Z,2.66
2018-03-23T20:59:44.490Z,2.69
2018-03-23T21:02:12.068Z,2.73
2018-03-23T21:04:39.694Z,2.67
2018-03-23T21:07:07.275Z,2.74
2018-03-23T21:09:35.783Z,2.65
2018-03-23T21:12:03.368Z,2.66
2018-03-23T21:14:31.015Z,2.60
2018-03-23T21:16:58.659Z,2.61
2018-03-23T21:19:26.372Z,2.54
2018-03-23T21:21:54.070Z,2.54
2018-03-23T21:24:21.735Z,2.49
2018-03-23T21:26:49.396Z,2.45
2018-03-23T21:29:17.014Z,2.41
2018-03-23T21:31:44.599Z,2.48
2018-03-23T21:34:12.256Z,2.59
2018-03-23T21:36:39.848Z,2.47
2018-03-23T21:39:07.471Z,2.46
2018-03-23T21:41:35.260Z,2.50
2018-03-23T21:44:02.995Z,2.47
2018-03-23T21:46:30.678Z,2.42
2018-03-23T21:48:59.219Z,2.37
2018-03-23T21:51:26.804Z,2.39
2018-03-23T21:53:54.429Z,2.58
2018-03-23T21:56:22.055Z,2.48
2018-03-23T21:58:49.645Z,2.37
2018-03-23T22:01:17.298Z,2.36
2018-03-23T22:03:44.951Z,2.33
2018-03-23T22:06:12.541Z,2.31
2018-03-23T22:08:40.132Z,2.28
2018-03-23T22:11:07.780Z,2.36
2018-03-23T22:13:35.365Z,2.35
2018-03-23T22:16:02.972Z,2.36
2018-03-23T22:18:30.634Z,2.31
2018-03-23T22:20:58.230Z,2.24
2018-03-23T22:23:25.926Z,2.27
2018-03-23T22:25:53.619Z,2.35
2018-03-23T22:28:21.278Z,2.35
2018-03-23T22:30:48.947Z,2.34
2018-03-23T22:33:16.524Z,2.36
2018-03-23T22:35:44.117Z,2.33
2018-03-23T22:38:11.698Z,2.23
2018-03-23T22:40:39.367Z,2.17
2018-03-23T22:43:07.227Z,2.22
2018-03-23T22:45:34.918Z,2.28
2018-03-23T22:48:02.616Z,2.28
2018-03-23T22:50:30.243Z,2.27
2018-03-23T22:52:57.885Z,2.34
2018-03-23T22:55:25.463Z,2.34
2018-03-23T22:57:53.085Z,2.27
2018-03-23T23:00:20.740Z,2.40
2018-03-23T23:02:48.319Z,2.37
2018-03-23T23:05:16.054Z,2.37
2018-03-23T23:07:43.641Z,2.29
2018-03-23T23:10:11.248Z,2.39
2018-03-23T23:12:39.760Z,2.31
2018-03-23T23:15:07.382Z,2.23
2018-03-23T23:17:35.683Z,2.26
2018-03-23T23:20:04.099Z,2.29
2018-03-23T23:22:32.606Z,2.36
2018-03-23T23:25:01.074Z,2.45
2018-03-23T23:27:29.470Z,2.47
2018-03-23T23:29:57.854Z,2.50
2018-03-23T23:32:25.448Z,2.41
2018-03-23T23:34:53.031Z,2.42
2018-03-23T23:37:21.480Z,2.36
2018-03-23T23:39:49.059Z,2.38
2018-03-23T23:42:17.618Z,2.51
2018-03-23T23:44:46.126Z,2.40
2018-03-23T23:47:13.750Z,2.42
2018-03-23T23:49:41.328Z,2.33
2018-03-23T23:52:08.912Z,2.23
2018-03-23T23:54:36.506Z,2.38
2018-03-23T23:57:04.087Z,2.37
2018-03-23T23:59:32.502Z,2.32
